createdAt,value
2022-09-12T00:00:14.419Z,93.74
2022-09-12T00:01:14.480Z,93.33
2022-09-12T00:02:14.437Z,93.60
2022-09-12T00:03:14.395Z,93.74
2022-09-12T00:04:14.391Z,94.05
2022-09-12T00:05:14.385Z,93.85
2022-09-12T00:06:14.365Z,93.85
2022-09-12T00:07:14.364Z,93.74
2022-09-12T00:08:14.351Z,93.44
2022-09-12T00:09:14.340Z,93.40
2022-09-12T00:10:14.347Z,93.50
2022-09-12T00:11:14.347Z,93.54
2022-09-12T00:12:14.343Z,93.50
2022-09-12T00:13:14.319Z,93.50
2022-09-12T00:14:14.309Z,93.19
2022-09-12T00:15:14.307Z,93.50
2022-09-12T00:16:14.364Z,93.80
2022-09-12T00:17:14.306Z,93.80
2022-09-12T00:18:14.282Z,94.11
2022-09-12T00:19:14.263Z,94.31
2022-09-12T00:20:14.251Z,95.33
2022-09-12T00:21:14.242Z,95.03
2022-09-12T00:22:14.247Z,95.78
2022-09-12T00:23:14.249Z,95.58
2022-09-12T00:24:14.239Z,95.58
2022-09-12T00:25:14.221Z,95.48
2022-09-12T00:26:14.216Z,95.58
2022-09-12T00:27:14.196Z,95.98
2022-09-12T00:28:14.197Z,95.78
2022-09-12T00:29:14.200Z,95.89
2022-09-12T00:30:14.181Z,95.98
2022-09-12T00:31:14.236Z,95.98
2022-09-12T00:32:14.161Z,95.58
2022-09-12T00:33:14.155Z,95.28
2022-09-12T00:34:14.142Z,95.68
2022-09-12T00:35:14.218Z,95.58
2022-09-12T00:36:14.131Z,95.68
2022-09-12T00:37:14.124Z,95.17
2022-09-12T00:38:14.110Z,95.98
2022-09-12T00:39:14.112Z,95.28
2022-09-12T00:40:14.138Z,95.48
2022-09-12T00:41:14.118Z,94.66
2022-09-12T00:42:14.085Z,95.32
2022-09-12T00:43:14.066Z,94.91
2022-09-12T00:44:14.057Z,95.21
2022-09-12T00:45:14.048Z,95.52
2022-09-12T00:46:14.044Z,95.42
2022-09-12T00:47:14.062Z,94.95
2022-09-12T00:48:14.036Z,95.93
2022-09-12T00:49:14.018Z,95.67
2022-09-12T00:50:14.018Z,95.57
2022-09-12T00:51:14.005Z,96.59
2022-09-12T00:52:13.997Z,97.50
2022-09-12T00:53:14.005Z,96.43
2022-09-12T00:54:13.987Z,96.48
2022-09-12T00:55:13.977Z,95.97
2022-09-12T00:56:13.973Z,97.04
2022-09-12T00:57:13.964Z,97.34
2022-09-12T00:58:13.954Z,97.45
2022-09-12T00:59:13.960Z,97.04
2022-09-12T01:00:13.951Z,96.12
2022-09-12T01:01:14.053Z,95.92
2022-09-12T01:02:13.975Z,95.92
2022-09-12T01:03:13.909Z,95.81
2022-09-12T01:04:13.931Z,95.72
2022-09-12T01:05:13.900Z,95.92
2022-09-12T01:06:13.889Z,95.72
2022-09-12T01:07:13.884Z,95.72
2022-09-12T01:08:13.872Z,96.02
2022-09-12T01:09:13.862Z,95.31
2022-09-12T01:10:13.885Z,95.72
2022-09-12T01:11:13.849Z,95.72
2022-09-12T01:12:13.847Z,95.61
2022-09-12T01:13:13.832Z,95.61
2022-09-12T01:14:13.827Z,95.20
2022-09-12T01:15:13.826Z,94.79
2022-09-12T01:16:13.854Z,94.49
2022-09-12T01:17:13.791Z,94.49
2022-09-12T01:18:13.804Z,94.49
2022-09-12T01:19:13.798Z,94.18
2022-09-12T01:20:13.785Z,94.33
2022-09-12T01:21:13.774Z,94.64
2022-09-12T01:22:13.786Z,95.15
2022-09-12T01:23:13.751Z,94.74
2022-09-12T01:24:13.744Z,94.84
2022-09-12T01:25:13.739Z,94.53
2022-09-12T01:26:13.727Z,94.53
2022-09-12T01:27:13.722Z,94.53
2022-09-12T01:28:13.738Z,94.33
2022-09-12T01:29:13.701Z,94.12
2022-09-12T01:30:13.702Z,94.33
2022-09-12T01:31:13.706Z,94.23
2022-09-12T01:32:13.710Z,94.43
2022-09-12T01:33:13.669Z,94.08
2022-09-12T01:34:13.665Z,93.88
2022-09-12T01:35:13.658Z,94.08
2022-09-12T01:36:13.650Z,94.23
2022-09-12T01:37:13.666Z,94.53
2022-09-12T01:38:13.642Z,94.64
2022-09-12T01:39:13.632Z,94.64
2022-09-12T01:40:13.652Z,94.64
2022-09-12T01:41:13.617Z,94.53
2022-09-12T01:42:13.607Z,94.53
2022-09-12T01:43:13.614Z,94.84
2022-09-12T01:44:13.620Z,94.84
2022-09-12T01:45:13.591Z,95.04
2022-09-12T01:46:13.586Z,94.94
2022-09-12T01:47:13.569Z,95.25
2022-09-12T01:48:13.569Z,95.25
2022-09-12T01:49:13.556Z,95.35
2022-09-12T01:50:13.571Z,95.35
2022-09-12T01:51:13.540Z,95.25
2022-09-12T01:52:13.537Z,95.04
2022-09-12T01:53:13.547Z,95.15
2022-09-12T01:54:13.519Z,95.35
2022-09-12T01:55:13.508Z,95.20
2022-09-12T01:56:13.501Z,95.92
2022-09-12T01:57:13.490Z,95.61
2022-09-12T01:58:13.488Z,95.76
2022-09-12T01:59:13.490Z,95.86
2022-09-12T02:00:13.470Z,95.86
2022-09-12T02:01:13.487Z,95.35
2022-09-12T02:02:13.502Z,95.76
2022-09-12T02:03:13.448Z,95.76
2022-09-12T02:04:13.444Z,96.47
2022-09-12T02:05:13.439Z,96.02
2022-09-12T02:06:13.439Z,95.72
2022-09-12T02:07:13.436Z,95.81
2022-09-12T02:08:13.411Z,96.02
2022-09-12T02:09:13.390Z,96.12
2022-09-12T02:10:13.393Z,96.43
2022-09-12T02:11:13.389Z,95.92
2022-09-12T02:12:13.399Z,96.17
2022-09-12T02:13:13.364Z,96.12
2022-09-12T02:14:13.365Z,96.43
2022-09-12T02:15:13.374Z,96.43
2022-09-12T02:16:13.410Z,95.96
2022-09-12T02:17:13.337Z,96.58
2022-09-12T02:18:13.331Z,95.86
2022-09-12T02:19:13.318Z,96.88
2022-09-12T02:20:21.364Z,97.65
2022-09-12T02:21:14.305Z,97.29
2022-09-12T02:22:13.295Z,97.13
2022-09-12T02:23:13.291Z,97.24
2022-09-12T02:24:13.301Z,97.29
2022-09-12T02:25:13.269Z,97.39
2022-09-12T02:26:13.262Z,97.29
2022-09-12T02:27:13.255Z,97.08
2022-09-12T02:28:13.249Z,97.24
2022-09-12T02:29:13.259Z,97.19
2022-09-12T02:30:13.234Z,97.64
2022-09-12T02:31:13.240Z,98.15
2022-09-12T02:32:13.215Z,98.15
2022-09-12T02:33:13.240Z,97.33
2022-09-12T02:34:13.210Z,97.13
2022-09-12T02:35:13.195Z,97.13
2022-09-12T02:36:13.189Z,97.24
2022-09-12T02:37:13.202Z,97.24
2022-09-12T02:38:13.172Z,97.33
2022-09-12T02:39:13.169Z,97.69
2022-09-12T02:40:13.209Z,98.10
2022-09-12T02:41:13.149Z,98.61
2022-09-12T02:42:13.146Z,98.61
2022-09-12T02:43:13.148Z,98.05
2022-09-12T02:44:13.122Z,97.74
2022-09-12T02:45:13.116Z,97.74
2022-09-12T02:46:13.102Z,97.99
2022-09-12T02:47:13.091Z,98.10
2022-09-12T02:48:13.631Z,98.20
2022-09-12T02:49:13.087Z,98.81
2022-09-12T02:50:13.084Z,99.63
2022-09-12T02:51:13.071Z,99.99
2022-09-12T02:52:13.090Z,99.99
2022-09-12T02:53:13.052Z,99.93
2022-09-12T02:54:13.041Z,99.99
2022-09-12T02:55:13.037Z,99.38
2022-09-12T02:56:13.030Z,99.07
2022-09-12T02:57:13.029Z,98.56
2022-09-12T02:58:13.033Z,97.95
2022-09-12T02:59:13.024Z,98.05
2022-09-12T03:00:13.024Z,98.15
2022-09-12T03:01:12.999Z,98.05
2022-09-12T03:02:13.042Z,98.56
2022-09-12T03:03:12.983Z,97.44
2022-09-12T03:04:12.974Z,97.74
2022-09-12T03:05:12.998Z,97.38
2022-09-12T03:06:12.969Z,97.38
2022-09-12T03:07:12.956Z,98.20
2022-09-12T03:08:12.956Z,98.30
2022-09-12T03:09:12.935Z,97.17
2022-09-12T03:10:12.931Z,97.28
2022-09-12T03:11:12.943Z,97.69
2022-09-12T03:12:12.919Z,97.99
2022-09-12T03:13:12.931Z,97.89
2022-09-12T03:14:12.908Z,98.20
2022-09-12T03:15:12.899Z,98.46
2022-09-12T03:16:12.970Z,98.15
2022-09-12T03:17:12.880Z,98.05
2022-09-12T03:18:12.871Z,97.95
2022-09-12T03:19:12.869Z,97.54
2022-09-12T03:20:12.883Z,97.64
2022-09-12T03:21:12.849Z,97.13
2022-09-12T03:22:12.846Z,97.54
2022-09-12T03:23:12.836Z,96.01
2022-09-12T03:24:12.858Z,95.80
2022-09-12T03:25:12.816Z,96.42
2022-09-12T03:26:12.811Z,97.33
2022-09-12T03:27:12.809Z,97.13
2022-09-12T03:28:12.807Z,97.13
2022-09-12T03:29:12.808Z,97.33
2022-09-12T03:30:19.814Z,97.58
2022-09-12T03:31:12.773Z,98.15
2022-09-12T03:32:12.767Z,98.15
2022-09-12T03:33:12.768Z,98.10
2022-09-12T03:34:12.785Z,97.95
2022-09-12T03:35:12.743Z,97.74
2022-09-12T03:36:12.743Z,97.64
2022-09-12T03:37:12.730Z,97.33
2022-09-12T03:38:12.728Z,98.05
2022-09-12T03:39:12.714Z,97.44
2022-09-12T03:40:12.778Z,97.44
2022-09-12T03:41:12.719Z,97.44
2022-09-12T03:42:12.698Z,97.33
2022-09-12T03:43:12.696Z,97.24
2022-09-12T03:44:12.671Z,96.31
2022-09-12T03:45:12.669Z,97.44
2022-09-12T03:46:12.661Z,97.24
2022-09-12T03:47:12.670Z,97.64
2022-09-12T03:48:12.648Z,97.54
2022-09-12T03:49:12.657Z,97.13
2022-09-12T03:50:12.635Z,96.51
2022-09-12T03:51:12.647Z,95.90
2022-09-12T03:52:12.624Z,97.08
2022-09-12T03:53:16.930Z,97.33
2022-09-12T03:54:12.604Z,97.44
2022-09-12T03:55:12.596Z,97.95
2022-09-12T03:56:12.592Z,97.24
2022-09-12T03:57:12.601Z,97.03
2022-09-12T03:58:12.573Z,97.38
2022-09-12T03:59:12.561Z,97.17
2022-09-12T04:00:16.395Z,97.13
2022-09-12T04:01:12.678Z,96.01
2022-09-12T04:02:12.586Z,96.87
2022-09-12T04:03:12.531Z,97.28
2022-09-12T04:04:12.525Z,97.99
2022-09-12T04:05:12.544Z,97.79
2022-09-12T04:06:12.511Z,97.94
2022-09-12T04:07:12.498Z,98.40
2022-09-12T04:08:12.502Z,98.61
2022-09-12T04:09:12.489Z,98.40
2022-09-12T04:10:12.483Z,98.50
2022-09-12T04:11:12.483Z,98.20
2022-09-12T04:12:12.470Z,97.99
2022-09-12T04:13:12.458Z,98.10
2022-09-12T04:14:12.455Z,98.20
2022-09-12T04:15:12.456Z,97.69
2022-09-12T04:16:12.520Z,97.38
2022-09-12T04:17:12.451Z,97.74
2022-09-12T04:18:12.424Z,98.50
2022-09-12T04:19:12.418Z,97.69
2022-09-12T04:20:12.409Z,97.28
2022-09-12T04:21:12.395Z,97.69
2022-09-12T04:22:12.408Z,97.69
2022-09-12T04:23:12.386Z,97.22
2022-09-12T04:24:12.395Z,97.42
2022-09-12T04:25:12.364Z,97.38
2022-09-12T04:26:12.358Z,97.42
2022-09-12T04:27:12.383Z,97.78
2022-09-12T04:28:12.349Z,97.74
2022-09-12T04:29:12.342Z,98.55
2022-09-12T04:30:12.342Z,99.62
2022-09-12T04:31:12.327Z,99.88
2022-09-12T04:32:12.316Z,99.68
2022-09-12T04:33:12.333Z,98.55
2022-09-12T04:34:12.305Z,99.06
2022-09-12T04:35:12.292Z,98.96
2022-09-12T04:36:12.315Z,98.60
2022-09-12T04:37:12.283Z,98.24
2022-09-12T04:38:12.269Z,99.06
2022-09-12T04:39:12.258Z,99.57
2022-09-12T04:40:12.279Z,99.22
2022-09-12T04:41:12.253Z,98.86
2022-09-12T04:42:12.266Z,98.35
2022-09-12T04:43:14.486Z,97.89
2022-09-12T04:44:12.239Z,98.20
2022-09-12T04:45:12.223Z,98.20
2022-09-12T04:46:12.283Z,97.28
2022-09-12T04:47:12.215Z,97.17
2022-09-12T04:48:12.199Z,97.58
2022-09-12T04:49:12.190Z,97.38
2022-09-12T04:50:12.179Z,97.38
2022-09-12T04:51:12.175Z,97.79
2022-09-12T04:52:12.182Z,98.10
2022-09-12T04:53:12.165Z,97.74
2022-09-12T04:54:12.165Z,97.74
2022-09-12T04:55:12.142Z,97.58
2022-09-12T04:56:12.142Z,97.08
2022-09-12T04:57:12.154Z,97.28
2022-09-12T04:58:12.125Z,97.94
2022-09-12T04:59:12.123Z,98.04
2022-09-12T05:00:12.109Z,98.40
2022-09-12T05:01:12.161Z,98.40
2022-09-12T05:02:12.142Z,97.79
2022-09-12T05:03:12.080Z,97.28
2022-09-12T05:04:12.080Z,97.17
2022-09-12T05:05:12.071Z,96.46
2022-09-12T05:06:12.067Z,97.38
2022-09-12T05:07:12.072Z,97.49
2022-09-12T05:08:12.041Z,98.10
2022-09-12T05:09:12.038Z,97.79
2022-09-12T05:10:12.021Z,98.10
2022-09-12T05:11:12.037Z,97.99
2022-09-12T05:12:12.028Z,98.30
2022-09-12T05:13:12.002Z,98.04
2022-09-12T05:14:12.195Z,98.45
2022-09-12T05:15:11.987Z,98.65
2022-09-12T05:16:12.023Z,99.68
2022-09-12T05:17:11.962Z,99.06
2022-09-12T05:18:11.958Z,99.72
2022-09-12T05:19:11.941Z,99.62
2022-09-12T05:20:11.964Z,99.21
2022-09-12T05:21:11.930Z,98.86
2022-09-12T05:22:11.932Z,99.62
2022-09-12T05:23:11.911Z,99.72
2022-09-12T05:24:11.901Z,99.82
2022-09-12T05:25:11.900Z,99.72
2022-09-12T05:26:11.928Z,99.93
2022-09-12T05:27:11.903Z,99.41
2022-09-12T05:28:11.881Z,99.88
2022-09-12T05:29:11.866Z,99.99
2022-09-12T05:30:11.878Z,99.99
2022-09-12T05:31:11.847Z,99.99
2022-09-12T05:32:11.977Z,99.93
2022-09-12T05:33:11.846Z,99.84
2022-09-12T05:34:11.839Z,99.11
2022-09-12T05:35:11.833Z,98.50
2022-09-12T05:36:11.836Z,98.25
2022-09-12T05:37:11.798Z,97.74
2022-09-12T05:38:11.793Z,97.49
2022-09-12T05:39:11.828Z,97.24
2022-09-12T05:40:11.830Z,96.83
2022-09-12T05:41:16.951Z,96.01
2022-09-12T05:42:12.766Z,96.56
2022-09-12T05:43:11.783Z,97.69
2022-09-12T05:44:11.753Z,97.38
2022-09-12T05:45:11.739Z,97.69
2022-09-12T05:46:11.755Z,98.30
2022-09-12T05:47:11.715Z,98.20
2022-09-12T05:48:11.717Z,98.10
2022-09-12T05:49:11.722Z,98.91
2022-09-12T05:50:11.710Z,98.81
2022-09-12T05:51:11.679Z,99.02
2022-09-12T05:52:11.704Z,98.86
2022-09-12T05:53:11.672Z,98.15
2022-09-12T05:54:11.663Z,97.74
2022-09-12T05:55:11.681Z,97.54
2022-09-12T05:56:11.660Z,97.24
2022-09-12T05:57:11.641Z,97.13
2022-09-12T05:58:11.646Z,96.83
2022-09-12T05:59:11.618Z,97.44
2022-09-12T06:00:11.625Z,97.24
2022-09-12T06:01:11.690Z,97.24
2022-09-12T06:02:11.658Z,97.44
2022-09-12T06:03:11.598Z,97.03
2022-09-12T06:04:11.588Z,96.37
2022-09-12T06:05:11.613Z,96.51
2022-09-12T06:06:11.576Z,96.72
2022-09-12T06:07:11.580Z,96.21
2022-09-12T06:08:11.657Z,95.50
2022-09-12T06:09:11.626Z,96.31
2022-09-12T06:10:11.617Z,96.01
2022-09-12T06:11:11.621Z,96.26
2022-09-12T06:12:11.580Z,97.49
2022-09-12T06:13:11.560Z,97.89
2022-09-12T06:14:11.575Z,97.74
2022-09-12T06:15:11.529Z,97.03
2022-09-12T06:16:11.548Z,97.13
2022-09-12T06:17:11.516Z,97.49
2022-09-12T06:18:11.508Z,97.08
2022-09-12T06:19:11.509Z,97.08
2022-09-12T06:20:11.501Z,96.58
2022-09-12T06:21:11.500Z,96.27
2022-09-12T06:22:11.476Z,95.86
2022-09-12T06:23:11.456Z,95.65
2022-09-12T06:24:11.485Z,95.76
2022-09-12T06:25:11.484Z,95.96
2022-09-12T06:26:11.445Z,95.15
2022-09-12T06:27:11.437Z,94.94
2022-09-12T06:28:11.431Z,94.84
2022-09-12T06:29:11.422Z,95.15
2022-09-12T06:30:11.413Z,95.76
2022-09-12T06:31:11.482Z,94.53
2022-09-12T06:32:11.398Z,95.56
2022-09-12T06:33:11.384Z,95.90
2022-09-12T06:34:11.404Z,95.65
2022-09-12T06:35:11.375Z,95.80
2022-09-12T06:36:12.550Z,96.21
2022-09-12T06:37:11.382Z,95.76
2022-09-12T06:38:11.363Z,95.86
2022-09-12T06:39:11.346Z,96.06
2022-09-12T06:40:11.388Z,96.83
2022-09-12T06:41:11.352Z,96.62
2022-09-12T06:42:11.328Z,96.37
2022-09-12T06:43:11.341Z,95.65
2022-09-12T06:44:11.343Z,95.96
2022-09-12T06:45:11.323Z,95.45
2022-09-12T06:46:11.365Z,95.51
2022-09-12T06:47:11.299Z,95.86
2022-09-12T06:48:11.290Z,95.51
2022-09-12T06:49:11.301Z,94.59
2022-09-12T06:50:11.309Z,94.70
2022-09-12T06:51:11.281Z,95.35
2022-09-12T06:52:11.270Z,95.65
2022-09-12T06:53:11.287Z,95.86
2022-09-12T06:54:11.255Z,96.58
2022-09-12T06:55:11.242Z,97.24
2022-09-12T06:56:11.235Z,96.02
2022-09-12T06:57:11.226Z,95.72
2022-09-12T06:58:11.227Z,95.72
2022-09-12T06:59:11.244Z,95.57
2022-09-12T07:00:11.203Z,95.51
2022-09-12T07:01:11.242Z,95.57
2022-09-12T07:02:11.235Z,94.65
2022-09-12T07:03:11.187Z,94.55
2022-09-12T07:04:11.188Z,94.55
2022-09-12T07:05:11.179Z,94.85
2022-09-12T07:06:11.170Z,94.38
2022-09-12T07:07:11.157Z,95.51
2022-09-12T07:08:11.152Z,94.90
2022-09-12T07:09:11.160Z,95.72
2022-09-12T07:10:11.144Z,96.22
2022-09-12T07:11:11.123Z,95.92
2022-09-12T07:12:11.139Z,95.97
2022-09-12T07:13:11.110Z,95.36
2022-09-12T07:14:11.098Z,96.08
2022-09-12T07:15:11.107Z,95.97
2022-09-12T07:16:12.295Z,95.01
2022-09-12T07:17:11.172Z,93.93
2022-09-12T07:18:11.072Z,93.89
2022-09-12T07:19:11.074Z,94.40
2022-09-12T07:20:11.074Z,94.81
2022-09-12T07:21:11.046Z,94.09
2022-09-12T07:22:11.058Z,94.40
2022-09-12T07:23:11.033Z,94.81
2022-09-12T07:24:11.204Z,94.87
2022-09-12T07:25:11.029Z,94.35
2022-09-12T07:26:11.011Z,93.64
2022-09-12T07:27:11.017Z,94.05
2022-09-12T07:28:10.999Z,93.95
2022-09-12T07:29:36.602Z,93.74
2022-09-12T07:30:11.987Z,93.54
2022-09-12T07:31:11.034Z,93.85
2022-09-12T07:32:10.991Z,93.33
2022-09-12T07:33:10.951Z,93.80
2022-09-12T07:34:10.952Z,93.29
2022-09-12T07:35:10.953Z,92.99
2022-09-12T07:36:10.945Z,92.89
2022-09-12T07:37:10.950Z,92.99
2022-09-12T07:38:11.038Z,92.68
2022-09-12T07:39:10.906Z,91.72
2022-09-12T07:40:10.967Z,91.17
2022-09-12T07:41:10.896Z,91.78
2022-09-12T07:42:10.884Z,90.36
2022-09-12T07:43:10.880Z,90.36
2022-09-12T07:44:10.894Z,89.99
2022-09-12T07:45:10.869Z,89.44
2022-09-12T07:46:10.880Z,89.54
2022-09-12T07:47:10.848Z,90.40
2022-09-12T07:48:10.840Z,89.24
2022-09-12T07:49:10.827Z,90.05
2022-09-12T07:50:10.833Z,90.05
2022-09-12T07:51:10.827Z,90.97
2022-09-12T07:52:10.802Z,91.07
2022-09-12T07:53:10.797Z,89.24
2022-09-12T07:54:10.793Z,89.70
2022-09-12T07:55:10.799Z,87.37
2022-09-12T07:56:10.785Z,87.87
2022-09-12T07:57:10.754Z,89.03
2022-09-12T07:58:10.777Z,88.42
2022-09-12T07:59:10.766Z,89.24
2022-09-12T08:00:10.735Z,89.95
2022-09-12T08:01:10.763Z,89.24
2022-09-12T08:02:16.071Z,89.24
2022-09-12T08:03:11.733Z,88.39
2022-09-12T08:04:10.731Z,87.77
2022-09-12T08:05:10.705Z,88.63
2022-09-12T08:06:10.695Z,89.34
2022-09-12T08:07:10.695Z,88.83
2022-09-12T08:08:10.691Z,89.24
2022-09-12T08:09:10.678Z,90.25
2022-09-12T08:10:10.683Z,90.36
2022-09-12T08:11:10.658Z,89.00
2022-09-12T08:12:10.683Z,88.59
2022-09-12T08:13:10.960Z,88.24
2022-09-12T08:14:10.636Z,88.34
2022-09-12T08:15:10.621Z,87.99
2022-09-12T08:16:10.667Z,87.85
2022-09-12T08:17:10.616Z,87.14
2022-09-12T08:18:10.646Z,86.13
2022-09-12T08:19:10.591Z,86.19
2022-09-12T08:20:10.598Z,86.08
2022-09-12T08:21:10.582Z,85.84
2022-09-12T08:22:10.570Z,85.84
2022-09-12T08:23:10.559Z,85.44
2022-09-12T08:24:10.577Z,85.90
2022-09-12T08:25:10.536Z,84.72
2022-09-12T08:26:10.566Z,84.89
2022-09-12T08:27:10.532Z,83.98
2022-09-12T08:28:10.514Z,84.48
2022-09-12T08:29:10.530Z,84.18
2022-09-12T08:30:10.506Z,84.18
2022-09-12T08:31:10.547Z,84.14
2022-09-12T08:32:10.529Z,83.83
2022-09-12T08:33:10.482Z,83.69
2022-09-12T08:34:10.480Z,83.69
2022-09-12T08:35:10.490Z,83.55
2022-09-12T08:36:10.489Z,83.35
2022-09-12T08:37:10.456Z,81.49
2022-09-12T08:38:10.456Z,82.90
2022-09-12T08:39:10.434Z,81.25
2022-09-12T08:40:10.509Z,81.69
2022-09-12T08:41:10.422Z,81.49
2022-09-12T08:43:10.422Z,82.95
2022-09-12T08:44:10.400Z,82.60
2022-09-12T08:45:10.395Z,82.42
2022-09-12T08:46:10.451Z,80.16
2022-09-12T08:47:10.397Z,79.92
2022-09-12T08:48:10.372Z,77.83
2022-09-12T08:49:10.358Z,76.84
2022-09-12T08:50:10.371Z,76.67
2022-09-12T08:51:10.345Z,74.02
2022-09-12T08:52:10.363Z,72.17
2022-09-12T08:53:10.336Z,72.17
2022-09-12T08:54:10.325Z,71.97
2022-09-12T08:55:10.317Z,71.53
2022-09-12T08:56:10.303Z,71.36
2022-09-12T08:57:10.344Z,71.33
2022-09-12T08:58:10.284Z,71.16
2022-09-12T08:59:10.274Z,70.96
2022-09-12T09:00:10.276Z,71.77
2022-09-12T09:01:10.345Z,69.62
2022-09-12T09:02:10.315Z,71.73
2022-09-12T09:03:10.269Z,69.99
2022-09-12T09:04:10.245Z,69.22
2022-09-12T09:05:10.243Z,69.66
2022-09-12T09:06:10.224Z,69.82
2022-09-12T09:07:10.215Z,67.32
2022-09-12T09:08:10.217Z,66.21
2022-09-12T09:09:10.211Z,67.02
2022-09-12T09:10:10.194Z,69.02
2022-09-12T09:11:10.197Z,67.88
2022-09-12T09:12:10.172Z,68.69
2022-09-12T09:13:10.164Z,66.78
2022-09-12T09:14:10.183Z,68.59
2022-09-12T09:15:10.184Z,67.29
2022-09-12T09:16:10.197Z,66.15
2022-09-12T09:17:10.129Z,65.72
2022-09-12T09:18:10.120Z,67.19
2022-09-12T09:19:10.109Z,64.62
2022-09-12T09:20:10.107Z,65.82
2022-09-12T09:21:10.116Z,67.82
2022-09-12T09:22:10.081Z,68.92
2022-09-12T09:23:10.070Z,68.29
2022-09-12T09:24:10.082Z,66.19
2022-09-12T09:25:10.059Z,67.46
2022-09-12T09:26:10.061Z,65.62
2022-09-12T09:27:29.940Z,65.42
2022-09-12T09:28:11.052Z,64.29
2022-09-12T09:29:10.035Z,63.09
2022-09-12T09:30:10.025Z,63.19
2022-09-12T09:31:17.121Z,63.39
2022-09-12T09:32:10.005Z,62.76
2022-09-12T09:33:10.009Z,61.76
2022-09-12T09:34:09.986Z,63.12
2022-09-12T09:35:09.976Z,63.49
2022-09-12T09:36:09.971Z,66.49
2022-09-12T09:37:09.963Z,65.16
2022-09-12T09:38:09.955Z,61.43
2022-09-12T09:39:09.970Z,60.93
2022-09-12T09:40:09.972Z,61.04
2022-09-12T09:41:09.927Z,61.33
2022-09-12T09:42:09.921Z,61.63
2022-09-12T09:43:09.925Z,61.71
2022-09-12T09:44:09.912Z,61.51
2022-09-12T09:45:09.900Z,58.94
2022-09-12T09:46:09.963Z,58.67
2022-09-12T09:47:09.895Z,60.10
2022-09-12T09:48:09.869Z,61.69
2022-09-12T09:49:09.885Z,61.49
2022-09-12T09:50:09.859Z,61.76
2022-09-12T09:51:09.860Z,60.93
2022-09-12T09:52:09.871Z,59.83
2022-09-12T09:53:09.826Z,59.01
2022-09-12T09:54:09.835Z,60.48
2022-09-12T09:55:09.805Z,60.88
2022-09-12T09:56:09.823Z,60.25
2022-09-12T09:57:09.784Z,58.75
2022-09-12T09:58:09.797Z,59.05
2022-09-12T09:59:09.822Z,58.70
2022-09-12T10:00:09.785Z,56.63
2022-09-12T10:01:09.822Z,57.76
2022-09-12T10:02:09.818Z,58.36
2022-09-12T10:03:13.394Z,58.65
2022-09-12T10:04:09.744Z,59.72
2022-09-12T10:05:09.762Z,57.70
2022-09-12T10:06:09.751Z,58.53
2022-09-12T10:07:09.722Z,56.03
2022-09-12T10:08:09.714Z,55.71
2022-09-12T10:09:09.707Z,57.90
2022-09-12T10:10:09.718Z,57.60
2022-09-12T10:11:09.683Z,56.30
2022-09-12T10:12:09.689Z,57.70
2022-09-12T10:13:09.676Z,56.40
2022-09-12T10:14:09.677Z,58.50
2022-09-12T10:15:09.659Z,56.70
2022-09-12T10:16:09.802Z,56.60
2022-09-12T10:17:09.646Z,57.47
2022-09-12T10:18:09.647Z,57.97
2022-09-12T10:19:09.632Z,56.18
2022-09-12T10:20:20.935Z,56.57
2022-09-12T10:21:10.636Z,57.28
2022-09-12T10:22:09.633Z,57.28
2022-09-12T10:23:09.612Z,56.08
2022-09-12T10:24:09.604Z,58.17
2022-09-12T10:25:09.592Z,56.48
2022-09-12T10:26:09.592Z,55.91
2022-09-12T10:27:09.608Z,56.21
2022-09-12T10:28:09.569Z,55.91
2022-09-12T10:29:09.561Z,56.01
2022-09-12T10:30:09.554Z,55.31
2022-09-12T10:31:09.572Z,56.03
2022-09-12T10:32:09.535Z,57.63
2022-09-12T10:33:09.546Z,54.83
2022-09-12T10:34:09.526Z,54.46
2022-09-12T10:35:09.524Z,54.66
2022-09-12T10:36:09.511Z,56.26
2022-09-12T10:37:09.500Z,56.83
2022-09-12T10:38:09.499Z,57.33
2022-09-12T10:39:09.505Z,56.40
2022-09-12T10:40:09.577Z,55.71
2022-09-12T10:41:09.471Z,56.01
2022-09-12T10:42:09.457Z,55.71
2022-09-12T10:43:09.479Z,55.91
2022-09-12T10:44:09.475Z,57.77
2022-09-12T10:45:09.439Z,57.37
2022-09-12T10:46:09.487Z,57.67
2022-09-12T10:47:09.439Z,57.57
2022-09-12T10:48:09.418Z,56.35
2022-09-12T10:49:09.414Z,56.38
2022-09-12T10:50:09.445Z,56.25
2022-09-12T10:51:09.407Z,56.62
2022-09-12T10:52:09.424Z,55.82
2022-09-12T10:53:09.387Z,54.56
2022-09-12T10:54:09.382Z,56.12
2022-09-12T10:55:09.391Z,55.93
2022-09-12T10:56:09.361Z,55.20
2022-09-12T10:57:09.357Z,54.80
2022-09-12T10:58:09.348Z,54.60
2022-09-12T10:59:09.337Z,55.20
2022-09-12T11:00:09.354Z,56.20
2022-09-12T11:01:09.393Z,56.17
2022-09-12T11:02:09.394Z,54.78
2022-09-12T11:03:09.309Z,53.88
2022-09-12T11:04:09.304Z,53.88
2022-09-12T11:05:09.296Z,54.25
2022-09-12T11:06:09.303Z,55.38
2022-09-12T11:07:09.287Z,56.07
2022-09-12T11:08:09.278Z,55.85
2022-09-12T11:09:09.274Z,55.42
2022-09-12T11:10:09.262Z,53.73
2022-09-12T11:11:09.270Z,54.63
2022-09-12T11:12:09.254Z,54.78
2022-09-12T11:13:09.232Z,54.48
2022-09-12T11:14:09.227Z,54.78
2022-09-12T11:15:09.235Z,55.18
2022-09-12T11:16:09.275Z,54.97
2022-09-12T11:17:13.271Z,53.46
2022-09-12T11:18:09.207Z,54.95
2022-09-12T11:19:09.213Z,54.82
2022-09-12T11:20:09.202Z,53.70
2022-09-12T11:21:09.206Z,51.12
2022-09-12T11:22:09.197Z,50.93
2022-09-12T11:23:09.175Z,53.01
2022-09-12T11:24:09.178Z,53.28
2022-09-12T11:25:09.152Z,51.30
2022-09-12T11:26:09.155Z,51.89
2022-09-12T11:27:09.174Z,52.59
2022-09-12T11:28:09.159Z,50.90
2022-09-12T11:29:09.129Z,50.40
2022-09-12T11:30:09.143Z,46.66
2022-09-12T11:31:09.148Z,48.66
2022-09-12T11:32:09.108Z,46.68
2022-09-12T11:33:09.099Z,48.39
2022-09-12T11:34:09.121Z,49.98
2022-09-12T11:35:09.496Z,51.05
2022-09-12T11:36:09.074Z,50.35
2022-09-12T11:37:11.013Z,47.87
2022-09-12T11:38:09.059Z,49.49
2022-09-12T11:39:09.051Z,49.19
2022-09-12T11:40:09.100Z,50.31
2022-09-12T11:41:09.044Z,51.10
2022-09-12T11:42:09.028Z,51.17
2022-09-12T11:43:09.031Z,49.19
2022-09-12T11:44:09.026Z,51.25
2022-09-12T11:45:09.026Z,51.25
2022-09-12T11:46:09.043Z,51.45
2022-09-12T11:47:08.994Z,50.33
2022-09-12T11:48:08.989Z,50.85
2022-09-12T11:49:08.990Z,51.50
2022-09-12T11:50:09.014Z,51.70
2022-09-12T11:51:08.972Z,51.28
2022-09-12T11:52:08.966Z,52.76
2022-09-12T11:53:08.953Z,51.60
2022-09-12T11:54:08.961Z,53.19
2022-09-12T11:55:08.958Z,53.49
2022-09-12T11:56:08.940Z,52.29
2022-09-12T11:57:08.924Z,52.00
2022-09-12T11:58:08.920Z,51.70
2022-09-12T11:59:08.908Z,52.59
2022-09-12T12:00:08.941Z,50.70
2022-09-12T12:01:08.891Z,52.29
2022-09-12T12:02:08.944Z,51.00
2022-09-12T12:03:08.930Z,51.20
2022-09-12T12:04:08.883Z,52.79
2022-09-12T12:05:08.884Z,54.38
2022-09-12T12:06:08.885Z,54.11
2022-09-12T12:07:08.860Z,53.71
2022-09-12T12:08:08.850Z,53.74
2022-09-12T12:09:08.840Z,54.01
2022-09-12T12:10:08.865Z,54.83
2022-09-12T12:11:08.821Z,56.52
2022-09-12T12:12:08.819Z,54.83
2022-09-12T12:13:13.853Z,53.46
2022-09-12T12:14:09.812Z,54.26
2022-09-12T12:15:08.805Z,53.96
2022-09-12T12:16:08.841Z,54.06
2022-09-12T12:17:08.782Z,53.96
2022-09-12T12:18:08.785Z,54.46
2022-09-12T12:19:10.685Z,53.24
2022-09-12T12:20:08.929Z,54.63
2022-09-12T12:21:08.770Z,55.63
2022-09-12T12:22:08.765Z,54.80
2022-09-12T12:23:08.761Z,54.31
2022-09-12T12:24:08.740Z,54.41
2022-09-12T12:25:08.728Z,54.80
2022-09-12T12:26:08.728Z,55.00
2022-09-12T12:27:08.735Z,54.48
2022-09-12T12:28:08.726Z,53.39
2022-09-12T12:29:08.705Z,52.62
2022-09-12T12:30:08.722Z,54.03
2022-09-12T12:31:08.757Z,53.74
2022-09-12T12:32:08.702Z,53.94
2022-09-12T12:33:08.671Z,55.05
2022-09-12T12:34:08.696Z,53.04
2022-09-12T12:35:08.675Z,54.24
2022-09-12T12:36:08.645Z,53.91
2022-09-12T12:37:08.657Z,53.78
2022-09-12T12:38:08.633Z,53.81
2022-09-12T12:39:08.622Z,54.08
2022-09-12T12:40:08.733Z,52.99
2022-09-12T12:41:08.605Z,51.17
2022-09-12T12:42:08.622Z,50.95
2022-09-12T12:43:08.598Z,52.14
2022-09-12T12:44:08.602Z,52.14
2022-09-12T12:45:08.595Z,51.15
2022-09-12T12:46:08.619Z,49.76
2022-09-12T12:47:08.567Z,48.29
2022-09-12T12:48:08.564Z,48.11
2022-09-12T12:49:08.591Z,48.61
2022-09-12T12:50:08.588Z,48.83
2022-09-12T12:51:08.542Z,49.53
2022-09-12T12:52:08.535Z,50.63
2022-09-12T12:53:08.529Z,49.63